createdAt,value
2022-12-19T00:04:32.765Z,103221.50
2022-12-19T00:09:31.540Z,103229.47
2022-12-19T00:14:31.930Z,103242.34
2022-12-19T00:19:32.223Z,103246.22
2022-12-19T00:24:31.046Z,103250.41
2022-12-19T00:29:29.825Z,103247.53
2022-12-19T00:34:28.699Z,103251.84
2022-12-19T00:39:28.926Z,103258.97
2022-12-19T00:44:27.686Z,103247.88
2022-12-19T00:49:26.412Z,103242.69
2022-12-19T00:54:25.356Z,103252.34
2022-12-19T00:59:26.746Z,103238.47
2022-12-19T01:04:29.394Z,103246.81
2022-12-19T01:09:28.803Z,103257.19
2022-12-19T01:14:28.968Z,103248.41
2022-12-19T01:19:28.592Z,103255.09
2022-12-19T01:24:27.474Z,103254.13
2022-12-19T01:29:26.313Z,103268.94
2022-12-19T01:34:27.701Z,103273.47
2022-12-19T01:39:27.547Z,103269.19
2022-12-19T01:44:29.170Z,103270.44
2022-12-19T01:49:32.631Z,103281.09
2022-12-19T01:54:35.646Z,103284.69
2022-12-19T01:59:38.935Z,103278.13
2022-12-19T02:04:42.640Z,103284.22
2022-12-19T02:09:41.573Z,103290.31
2022-12-19T02:14:40.941Z,103298.06
2022-12-19T02:20:19.407Z,103311.59
2022-12-19T02:25:56.905Z,103307.41
2022-12-19T02:31:16.468Z,103315.44
2022-12-19T02:36:20.693Z,103319.53
2022-12-19T02:41:25.927Z,103317.44
2022-12-19T02:46:26.738Z,103315.81
2022-12-19T02:51:26.334Z,103313.06
2022-12-19T02:56:39.548Z,103307.63
2022-12-19T03:01:50.103Z,103319.31
2022-12-19T03:06:55.079Z,103310.47
2022-12-19T03:12:02.849Z,103309.00
2022-12-19T03:17:07.126Z,103324.19
2022-12-19T03:22:06.381Z,103323.81
2022-12-19T03:27:10.011Z,103333.72
2022-12-19T03:32:17.519Z,103333.72
2022-12-19T03:37:19.323Z,103329.53
2022-12-19T03:42:37.290Z,103331.53
2022-12-19T03:47:41.614Z,103333.94
2022-12-19T03:52:45.404Z,103336.16
2022-12-19T03:57:45.890Z,103342.88
2022-12-19T04:02:49.071Z,103347.78
2022-12-19T04:07:50.117Z,103367.13
2022-12-19T04:12:54.504Z,103373.66
2022-12-19T04:17:58.684Z,103384.69
2022-12-19T04:23:02.465Z,103395.81
2022-12-19T04:28:06.159Z,103391.81
2022-12-19T04:33:06.530Z,103396.00
2022-12-19T04:38:07.759Z,103406.38
2022-12-19T04:43:08.481Z,103406.59
2022-12-19T04:48:09.000Z,103416.78
2022-12-19T04:53:07.970Z,103419.53
2022-12-19T04:58:08.230Z,103424.97
2022-12-19T05:03:08.718Z,103437.16
2022-12-19T05:08:07.898Z,103437.69
2022-12-19T05:13:06.828Z,103444.13
2022-12-19T05:18:05.948Z,103450.31
2022-12-19T05:23:11.389Z,103445.03
2022-12-19T05:28:15.818Z,103455.44
2022-12-19T05:33:14.647Z,103463.38
2022-12-19T05:38:15.091Z,103463.84
2022-12-19T05:43:13.960Z,103468.66
2022-12-19T05:48:13.765Z,103479.97
2022-12-19T05:53:14.095Z,103481.66
2022-12-19T05:58:13.340Z,103486.66
2022-12-19T06:03:12.209Z,103492.97
2022-12-19T06:08:11.408Z,103496.84
2022-12-19T06:13:11.608Z,103495.06
2022-12-19T06:18:10.445Z,103510.38
2022-12-19T06:23:10.603Z,103526.53
2022-12-19T06:28:11.153Z,103524.41
2022-12-19T06:33:10.173Z,103531.81
2022-12-19T06:38:09.285Z,103532.53
2022-12-19T06:43:08.290Z,103540.00
2022-12-19T06:48:08.680Z,103543.59
2022-12-19T06:53:07.543Z,103549.13
2022-12-19T06:58:06.760Z,103550.38
2022-12-19T07:03:09.109Z,103567.06
2022-12-19T07:08:09.700Z,103559.06
2022-12-19T07:13:08.497Z,103567.06
2022-12-19T07:18:09.556Z,103587.22
2022-12-19T07:23:12.322Z,103602.53
2022-12-19T07:28:13.185Z,103596.19
2022-12-19T07:33:15.630Z,103601.31
2022-12-19T07:38:18.547Z,103609.31
2022-12-19T07:43:17.406Z,103618.03
2022-12-19T07:48:16.166Z,103623.66
2022-12-19T07:53:15.013Z,103624.81
2022-12-19T07:58:18.297Z,103626.75
2022-12-19T08:03:17.040Z,103627.69
2022-12-19T08:08:16.032Z,103630.34
2022-12-19T08:13:14.814Z,103628.94
2022-12-19T08:18:15.085Z,103635.22
2022-12-19T08:23:27.181Z,103631.19
2022-12-19T08:28:26.008Z,103641.91
2022-12-19T08:33:27.277Z,103644.66
2022-12-19T08:38:30.018Z,103628.22
2022-12-19T08:43:32.505Z,103636.56
2022-12-19T08:48:33.515Z,103627.50
2022-12-19T08:53:35.387Z,103629.19
2022-12-19T08:58:34.235Z,103630.56
2022-12-19T09:03:38.274Z,103630.44
2022-12-19T09:08:53.888Z,103617.38
2022-12-19T09:13:59.991Z,103625.16
2022-12-19T09:19:00.298Z,103610.28
2022-12-19T09:24:08.093Z,103602.56
2022-12-19T09:29:19.897Z,103594.59
2022-12-19T09:34:36.167Z,103592.63
2022-12-19T09:39:37.766Z,103588.91
2022-12-19T09:44:52.298Z,103584.41
2022-12-19T09:49:55.295Z,103574.47
2022-12-19T09:54:58.764Z,103566.78
2022-12-19T10:00:02.091Z,103559.13
2022-12-19T10:05:40.557Z,103558.44
2022-12-19T10:12:40.544Z,103555.13
2022-12-19T10:16:22.600Z,103550.38
2022-12-19T10:22:07.544Z,103543.84
2022-12-19T10:26:53.669Z,103540.28
2022-12-19T10:31:59.862Z,103540.72
2022-12-19T10:37:27.131Z,103532.66
2022-12-19T10:42:33.880Z,103530.63
2022-12-19T10:47:33.190Z,103525.97
2022-12-19T10:53:07.510Z,103527.22
2022-12-19T10:58:24.246Z,103519.09
2022-12-19T11:03:26.334Z,103523.97
2022-12-19T11:08:28.723Z,103510.75
2022-12-19T11:17:44.427Z,103507.44
2022-12-19T11:24:34.965Z,103502.06
2022-12-19T11:29:34.560Z,103501.59
2022-12-19T11:35:17.478Z,103500.91
2022-12-19T11:40:28.158Z,103500.47
2022-12-19T11:45:36.049Z,103496.19
2022-12-19T11:50:40.392Z,103504.19
2022-12-19T11:55:45.569Z,103502.66
2022-12-19T12:00:52.705Z,103512.53
2022-12-19T12:05:55.439Z,103523.84
2022-12-19T12:16:04.272Z,103503.06
2022-12-19T12:31:08.392Z,103503.41
2022-12-19T12:31:21.673Z,103496.09
2022-12-19T12:31:43.768Z,103509.13
2022-12-19T12:35:31.716Z,103511.88
2022-12-19T12:44:09.511Z,103507.38
2022-12-19T12:49:24.362Z,103511.78
2022-12-19T12:54:32.408Z,103514.97
2022-12-19T12:59:33.429Z,103501.63
2022-12-19T13:04:35.045Z,103517.25
2022-12-19T13:09:47.659Z,103506.06
2022-12-19T13:14:54.329Z,103518.31
2022-12-19T13:20:16.042Z,103525.16
2022-12-19T13:25:52.672Z,103528.25
2022-12-19T13:31:21.153Z,103536.69
2022-12-19T13:39:54.618Z,103529.47
2022-12-19T13:44:24.418Z,103519.00
2022-12-19T13:48:36.393Z,103522.81
2022-12-19T13:53:36.098Z,103525.97
2022-12-19T13:58:45.970Z,103521.03
2022-12-19T14:03:53.050Z,103514.22
2022-12-19T14:10:19.927Z,103516.78
2022-12-19T14:14:35.608Z,103521.88
2022-12-19T14:19:41.528Z,103524.09
2022-12-19T14:24:44.538Z,103535.78
2022-12-19T14:30:30.485Z,103543.47
2022-12-19T14:36:07.679Z,103543.03
2022-12-19T14:43:14.869Z,103547.41
2022-12-19T14:52:36.051Z,103548.09
2022-12-19T14:54:28.081Z,103552.38
2022-12-19T14:58:54.599Z,103558.78
2022-12-19T15:04:50.456Z,103558.97
2022-12-19T15:11:05.358Z,103555.22
2022-12-19T15:15:44.107Z,103553.66
2022-12-19T15:20:53.491Z,103550.53
2022-12-19T15:26:04.693Z,103541.78
2022-12-19T15:31:11.698Z,103546.66
2022-12-19T15:36:11.149Z,103556.31
2022-12-19T15:41:15.424Z,103560.03
2022-12-19T15:46:15.308Z,103550.78
2022-12-19T15:51:14.847Z,103560.94
2022-12-19T15:56:28.476Z,103562.25
2022-12-19T16:01:27.869Z,103569.72
2022-12-19T16:06:27.236Z,103579.03
2022-12-19T16:11:27.624Z,103574.94
2022-12-19T16:16:26.575Z,103579.25
2022-12-19T16:21:33.675Z,103583.50
2022-12-19T16:26:37.168Z,103584.78
2022-12-19T16:31:36.073Z,103593.88
2022-12-19T16:36:34.913Z,103585.75
2022-12-19T16:41:41.753Z,103578.94
2022-12-19T16:46:46.962Z,103582.91
2022-12-19T16:51:49.104Z,103589.00
2022-12-19T16:56:57.934Z,103587.66
2022-12-19T17:01:57.976Z,103583.84
2022-12-19T17:06:57.473Z,103590.72
2022-12-19T17:12:00.259Z,103587.25
2022-12-19T17:17:00.705Z,103582.34
2022-12-19T17:21:59.547Z,103580.03
2022-12-19T17:26:59.627Z,103587.81
2022-12-19T17:31:58.520Z,103601.03
2022-12-19T17:36:58.717Z,103594.38
2022-12-19T17:42:01.963Z,103595.16
2022-12-19T17:47:00.792Z,103600.38
2022-12-19T17:52:02.639Z,103597.28
2022-12-19T17:57:03.337Z,103608.47
2022-12-19T18:02:02.605Z,103604.97
2022-12-19T18:07:02.783Z,103600.66
2022-12-19T18:12:03.021Z,103608.06
2022-12-19T18:17:02.834Z,103612.75
2022-12-19T18:22:01.665Z,103615.97
2022-12-19T18:27:00.617Z,103607.66
2022-12-19T18:32:00.961Z,103613.56
2022-12-19T18:36:59.964Z,103612.84
2022-12-19T18:41:58.956Z,103604.66
2022-12-19T18:46:57.928Z,103609.88
2022-12-19T18:51:58.067Z,103606.22
2022-12-19T18:56:57.534Z,103594.00
2022-12-19T19:01:56.749Z,103617.72
2022-12-19T19:06:55.928Z,103611.38
2022-12-19T19:11:59.446Z,103611.31
2022-12-19T19:17:01.812Z,103616.69
2022-12-19T19:22:03.268Z,103604.50
2022-12-19T19:27:03.762Z,103609.22
2022-12-19T19:32:03.390Z,103606.84
2022-12-19T19:37:05.083Z,103605.34
2022-12-19T19:42:06.913Z,103606.94
2022-12-19T19:47:10.499Z,103615.31
2022-12-19T19:52:10.447Z,103617.94
2022-12-19T19:57:11.693Z,103606.34
2022-12-19T20:02:11.472Z,103614.38
2022-12-19T20:07:10.709Z,103613.88
2022-12-19T20:12:11.235Z,103615.19
2022-12-19T20:17:11.917Z,103606.69
2022-12-19T20:22:11.151Z,103611.41
2022-12-19T20:27:11.775Z,103603.91
2022-12-19T20:32:10.696Z,103600.84
2022-12-19T20:37:10.105Z,103612.03
2022-12-19T20:42:09.643Z,103613.34
2022-12-19T20:47:09.975Z,103606.31
2022-12-19T20:52:09.077Z,103602.41
2022-12-19T20:57:07.815Z,103604.47
2022-12-19T21:02:07.290Z,103597.88
2022-12-19T21:07:08.305Z,103587.66
2022-12-19T21:12:07.522Z,103579.38
2022-12-19T21:17:06.538Z,103589.69
2022-12-19T21:22:05.405Z,103576.25
2022-12-19T21:27:06.072Z,103580.72
2022-12-19T21:32:04.965Z,103580.22
2022-12-19T21:37:03.811Z,103590.50
2022-12-19T21:42:09.335Z,103579.16
2022-12-19T21:47:10.995Z,103580.03
2022-12-19T21:52:10.232Z,103582.13
2022-12-19T21:57:09.256Z,103569.56
2022-12-19T22:02:11.789Z,103571.03
2022-12-19T22:07:11.436Z,103567.59
2022-12-19T22:12:10.818Z,103562.31
2022-12-19T22:17:11.014Z,103557.91
2022-12-19T22:22:09.832Z,103553.78
2022-12-19T22:27:08.676Z,103544.19
2022-12-19T22:32:07.724Z,103547.44
2022-12-19T22:37:08.090Z,103545.16
2022-12-19T22:42:06.886Z,103547.63
2022-12-19T22:47:05.739Z,103532.91
2022-12-19T22:52:04.849Z,103542.66
2022-12-19T22:57:05.181Z,103536.59
2022-12-19T23:02:04.300Z,103532.53
2022-12-19T23:07:03.701Z,103529.03
2022-12-19T23:12:02.620Z,103536.50
2022-12-19T23:17:02.831Z,103530.09
2022-12-19T23:22:02.033Z,103534.00
2022-12-19T23:27:01.049Z,103527.66
2022-12-19T23:32:00.060Z,103523.94
2022-12-19T23:37:10.586Z,103510.34
2022-12-19T23:42:10.215Z,103520.09
2022-12-19T23:47:09.517Z,103526.09
2022-12-19T23:52:09.916Z,103512.03
2022-12-19T23:57:09.108Z,103524.44
